sensor_id;sensor_type;location;lat;lon;timestamp;noise_LAeq;noise_LA_min;noise_LA_max;noise_LA01;noise_LA95
67324;Laerm;57667;51.438;5.968;2023-07-29T00:00:09;47.31;44.42;52.13;;
67324;Laerm;57667;51.438;5.968;2023-07-29T00:00:20;47.60;43.60;51.46;;
67324;Laerm;57667;51.438;5.968;2023-07-29T00:00:30;46.96;44.41;52.84;;
67324;Laerm;57667;51.438;5.968;2023-07-29T00:00:40;48.05;44.60;51.47;;
67324;Laerm;57667;51.438;5.968;2023-07-29T00:00:51;47.46;42.87;55.62;;
67324;Laerm;57667;51.438;5.968;2023-07-29T00:01:01;47.27;42.92;52.46;;
67324;Laerm;57667;51.438;5.968;2023-07-29T00:01:11;50.68;43.71;58.30;;
67324;Laerm;57667;51.438;5.968;2023-07-29T00:01:22;50.04;43.06;56.01;;
67324;Laerm;57667;51.438;5.968;2023-07-29T00:01:33;49.00;44.70;54.02;;
67324;Laerm;57667;51.438;5.968;2023-07-29T00:01:44;50.05;44.86;56.07;;
67324;Laerm;57667;51.438;5.968;2023-07-29T00:01:55;50.89;46.45;56.37;;
67324;Laerm;57667;51.438;5.968;2023-07-29T00:02:05;50.34;45.80;56.50;;
67324;Laerm;57667;51.438;5.968;2023-07-29T00:02:15;49.79;44.89;53.93;;
67324;Laerm;57667;51.438;5.968;2023-07-29T00:02:26;49.86;43.76;55.37;;
67324;Laerm;57667;51.438;5.968;2023-07-29T00:02:39;48.35;42.75;53.82;;
67324;Laerm;57667;51.438;5.968;2023-07-29T00:02:50;50.20;43.35;56.18;;
67324;Laerm;57667;51.438;5.968;2023-07-29T00:03:00;50.08;42.61;56.37;;
67324;Laerm;57667;51.438;5.968;2023-07-29T00:03:10;50.77;43.83;56.67;;
67324;Laerm;57667;51.438;5.968;2023-07-29T00:03:20;50.41;44.92;54.55;;
67324;Laerm;57667;51.438;5.968;2023-07-29T00:03:31;51.02;44.17;56.96;;
67324;Laerm;57667;51.438;5.968;2023-07-29T00:03:42;51.98;44.90;56.63;;
67324;Laerm;57667;51.438;5.968;2023-07-29T00:03:52;50.13;44.72;55.11;;
67324;Laerm;57667;51.438;5.968;2023-07-29T00:04:02;49.90;45.64;54.21;;
67324;Laerm;57667;51.438;5.968;2023-07-29T00:04:13;49.87;44.10;58.17;;
67324;Laerm;57667;51.438;5.968;2023-07-29T00:04:23;51.45;43.61;55.48;;
67324;Laerm;57667;51.438;5.968;2023-07-29T00:04:33;49.94;42.83;54.50;;
67324;Laerm;57667;51.438;5.968;2023-07-29T00:04:44;49.51;42.49;54.94;;
67324;Laerm;57667;51.438;5.968;2023-07-29T00:04:54;49.69;42.72;56.47;;
67324;Laerm;57667;51.438;5.968;2023-07-29T00:05:04;50.26;44.07;57.31;;
67324;Laerm;57667;51.438;5.968;2023-07-29T00:05:15;49.71;43.10;55.64;;
67324;Laerm;57667;51.438;5.968;2023-07-29T00:05:25;49.93;45.54;56.01;;
67324;Laerm;57667;51.438;5.968;2023-07-29T00:05:38;49.00;44.39;53.95;;
67324;Laerm;57667;51.438;5.968;2023-07-29T00:05:49;49.66;43.59;55.76;;
67324;Laerm;57667;51.438;5.968;2023-07-29T00:05:59;49.71;45.24;54.99;;
67324;Laerm;57667;51.438;5.968;2023-07-29T00:06:10;49.35;43.93;56.40;;
67324;Laerm;57667;51.438;5.968;2023-07-29T00:06:20;49.93;44.92;54.88;;
67324;Laerm;57667;51.438;5.968;2023-07-29T00:06:30;51.12;44.34;55.83;;
67324;Laerm;57667;51.438;5.968;2023-07-29T00:06:41;50.72;43.29;55.86;;
67324;Laerm;57667;51.438;5.968;2023-07-29T00:06:51;50.26;45.50;56.53;;
67324;Laerm;57667;51.438;5.968;2023-07-29T00:07:01;49.61;45.99;54.05;;
67324;Laerm;57667;51.438;5.968;2023-07-29T00:07:11;66.08;46.59;73.99;;
67324;Laerm;57667;51.438;5.968;2023-07-29T00:07:22;68.76;64.68;72.77;;
67324;Laerm;57667;51.438;5.968;2023-07-29T00:07:32;71.42;59.75;76.85;;
67324;Laerm;57667;51.438;5.968;2023-07-29T00:07:42;53.80;47.75;61.00;;
67324;Laerm;57667;51.438;5.968;2023-07-29T00:07:53;50.59;45.76;57.00;;
67324;Laerm;57667;51.438;5.968;2023-07-29T00:08:03;50.83;46.57;57.16;;
67324;Laerm;57667;51.438;5.968;2023-07-29T00:08:14;50.75;44.27;56.38;;
67324;Laerm;57667;51.438;5.968;2023-07-29T00:08:24;49.48;44.96;54.98;;
67324;Laerm;57667;51.438;5.968;2023-07-29T00:08:34;49.72;44.55;54.99;;
67324;Laerm;57667;51.438;5.968;2023-07-29T00:08:45;50.26;43.70;55.91;;
67324;Laerm;57667;51.438;5.968;2023-07-29T00:08:55;49.87;44.15;55.78;;
67324;Laerm;57667;51.438;5.968;2023-07-29T00:09:05;49.65;44.46;54.79;;
67324;Laerm;57667;51.438;5.968;2023-07-29T00:09:15;49.82;44.25;54.45;;
67324;Laerm;57667;51.438;5.968;2023-07-29T00:09:26;48.98;44.28;56.01;;
67324;Laerm;57667;51.438;5.968;2023-07-29T00:09:36;49.60;44.05;54.02;;
67324;Laerm;57667;51.438;5.968;2023-07-29T00:09:48;50.07;45.31;55.29;;
67324;Laerm;57667;51.438;5.968;2023-07-29T00:09:58;49.96;45.77;58.09;;
67324;Laerm;57667;51.438;5.968;2023-07-29T00:10:08;50.34;45.57;55.76;;
67324;Laerm;57667;51.438;5.968;2023-07-29T00:10:19;49.94;45.45;56.59;;
67324;Laerm;57667;51.438;5.968;2023-07-29T00:10:30;50.11;44.17;54.98;;
67324;Laerm;57667;51.438;5.968;2023-07-29T00:10:41;49.72;44.47;54.64;;
67324;Laerm;57667;51.438;5.968;2023-07-29T00:10:51;48.52;43.89;54.01;;
67324;Laerm;57667;51.438;5.968;2023-07-29T00:11:02;48.60;43.30;54.75;;
67324;Laerm;57667;51.438;5.968;2023-07-29T00:11:12;48.36;43.68;54.07;;
67324;Laerm;57667;51.438;5.968;2023-07-29T00:11:22;49.23;43.74;55.35;;
67324;Laerm;57667;51.438;5.968;2023-07-29T00:11:33;48.62;44.54;54.23;;
67324;Laerm;57667;51.438;5.968;2023-07-29T00:11:43;48.87;44.88;55.59;;
67324;Laerm;57667;51.438;5.968;2023-07-29T00:11:54;49.56;45.45;54.48;;
67324;Laerm;57667;51.438;5.968;2023-07-29T00:12:04;49.89;44.67;56.10;;
67324;Laerm;57667;51.438;5.968;2023-07-29T00:12:15;50.14;45.62;56.93;;
67324;Laerm;57667;51.438;5.968;2023-07-29T00:12:25;50.57;45.34;55.00;;
67324;Laerm;57667;51.438;5.968;2023-07-29T00:12:35;50.36;44.56;55.96;;
67324;Laerm;57667;51.438;5.968;2023-07-29T00:12:45;50.95;44.08;55.73;;
67324;Laerm;57667;51.438;5.968;2023-07-29T00:12:56;49.83;44.69;53.63;;
67324;Laerm;57667;51.438;5.968;2023-07-29T00:13:06;49.64;43.66;54.02;;
67324;Laerm;57667;51.438;5.968;2023-07-29T00:13:17;49.66;45.89;53.86;;
67324;Laerm;57667;51.438;5.968;2023-07-29T00:13:27;50.22;46.16;57.36;;
67324;Laerm;57667;51.438;5.968;2023-07-29T00:13:38;49.45;44.78;55.67;;
67324;Laerm;57667;51.438;5.968;2023-07-29T00:13:48;49.04;44.17;55.55;;
67324;Laerm;57667;51.438;5.968;2023-07-29T00:14:00;48.74;44.63;53.92;;
67324;Laerm;57667;51.438;5.968;2023-07-29T00:14:11;50.46;44.44;54.80;;
67324;Laerm;57667;51.438;5.968;2023-07-29T00:14:21;53.39;45.94;58.25;;
67324;Laerm;57667;51.438;5.968;2023-07-29T00:14:31;50.17;45.67;56.71;;
67324;Laerm;57667;51.438;5.968;2023-07-29T00:14:42;50.35;42.39;58.52;;
67324;Laerm;57667;51.438;5.968;2023-07-29T00:14:52;50.59;44.77;58.19;;
67324;Laerm;57667;51.438;5.968;2023-07-29T00:15:02;50.66;44.30;54.82;;
67324;Laerm;57667;51.438;5.968;2023-07-29T00:15:13;50.53;43.54;57.13;;
67324;Laerm;57667;51.438;5.968;2023-07-29T00:15:23;50.33;42.88;55.08;;
67324;Laerm;57667;51.438;5.968;2023-07-29T00:15:34;49.46;42.07;54.38;;
67324;Laerm;57667;51.438;5.968;2023-07-29T00:15:44;49.94;43.17;56.32;;
67324;Laerm;57667;51.438;5.968;2023-07-29T00:15:54;50.06;42.65;55.45;;
67324;Laerm;57667;51.438;5.968;2023-07-29T00:16:05;50.25;42.63;60.47;;
67324;Laerm;57667;51.438;5.968;2023-07-29T00:16:16;49.78;46.51;53.52;;
67324;Laerm;57667;51.438;5.968;2023-07-29T00:16:27;49.60;42.94;53.71;;
67324;Laerm;57667;51.438;5.968;2023-07-29T00:16:37;49.00;45.62;53.70;;
67324;Laerm;57667;51.438;5.968;2023-07-29T00:16:47;48.75;44.09;52.58;;
67324;Laerm;57667;51.438;5.968;2023-07-29T00:16:58;48.67;42.55;54.20;;
67324;Laerm;57667;51.438;5.968;2023-07-29T00:17:08;48.35;43.70;53.03;;
67324;Laerm;57667;51.438;5.968;2023-07-29T00:17:18;48.08;43.27;53.09;;
67324;Laerm;57667;51.438;5.968;2023-07-29T00:17:30;49.88;43.19;57.19;;
67324;Laerm;57667;51.438;5.968;2023-07-29T00:17:40;48.33;43.48;53.79;;
67324;Laerm;57667;51.438;5.968;2023-07-29T00:17:50;49.95;43.06;55.08;;
67324;Laerm;57667;51.438;5.968;2023-07-29T00:18:01;51.45;42.74;56.26;;
67324;Laerm;57667;51.438;5.968;2023-07-29T00:18:11;50.83;43.78;56.50;;
67324;Laerm;57667;51.438;5.968;2023-07-29T00:18:22;50.52;43.30;55.76;;
67324;Laerm;57667;51.438;5.968;2023-07-29T00:18:33;49.75;43.56;55.60;;
67324;Laerm;57667;51.438;5.968;2023-07-29T00:18:43;49.71;43.05;54.34;;
67324;Laerm;57667;51.438;5.968;2023-07-29T00:18:54;49.52;44.53;54.99;;
67324;Laerm;57667;51.438;5.968;2023-07-29T00:19:04;50.93;43.69;56.76;;
67324;Laerm;57667;51.438;5.968;2023-07-29T00:19:14;48.89;44.02;53.50;;
67324;Laerm;57667;51.438;5.968;2023-07-29T00:19:25;49.80;45.13;57.69;;
67324;Laerm;57667;51.438;5.968;2023-07-29T00:19:35;49.83;44.00;56.53;;
67324;Laerm;57667;51.438;5.968;2023-07-29T00:19:46;49.27;45.79;56.62;;
67324;Laerm;57667;51.438;5.968;2023-07-29T00:19:56;50.25;44.78;56.20;;
67324;Laerm;57667;51.438;5.968;2023-07-29T00:20:06;47.61;41.77;54.22;;
67324;Laerm;57667;51.438;5.968;2023-07-29T00:20:17;48.12;44.23;52.44;;
67324;Laerm;57667;51.438;5.968;2023-07-29T00:20:27;46.86;42.07;52.96;;
67324;Laerm;57667;51.438;5.968;2023-07-29T00:20:37;53.93;42.29;65.69;;
67324;Laerm;57667;51.438;5.968;2023-07-29T00:20:48;63.50;60.12;69.19;;
67324;Laerm;57667;51.438;5.968;2023-07-29T00:20:58;63.23;60.48;66.23;;
67324;Laerm;57667;51.438;5.968;2023-07-29T00:21:08;56.83;45.08;64.48;;
67324;Laerm;57667;51.438;5.968;2023-07-29T00:21:19;49.45;43.90;55.04;;
67324;Laerm;57667;51.438;5.968;2023-07-29T00:21:29;49.80;43.14;56.64;;
67324;Laerm;57667;51.438;5.968;2023-07-29T00:21:39;50.01;42.98;57.05;;
67324;Laerm;57667;51.438;5.968;2023-07-29T00:21:51;49.11;43.93;56.98;;
67324;Laerm;57667;51.438;5.968;2023-07-29T00:22:01;50.58;43.01;55.49;;
67324;Laerm;57667;51.438;5.968;2023-07-29T00:22:11;50.34;44.23;54.75;;
67324;Laerm;57667;51.438;5.968;2023-07-29T00:22:22;50.23;44.15;56.22;;
67324;Laerm;57667;51.438;5.968;2023-07-29T00:22:32;50.44;43.61;54.79;;
67324;Laerm;57667;51.438;5.968;2023-07-29T00:22:42;49.54;42.44;54.43;;
67324;Laerm;57667;51.438;5.968;2023-07-29T00:22:53;50.38;43.64;56.12;;
67324;Laerm;57667;51.438;5.968;2023-07-29T00:23:04;48.42;41.48;54.32;;
67324;Laerm;57667;51.438;5.968;2023-07-29T00:23:15;49.78;43.73;54.27;;
67324;Laerm;57667;51.438;5.968;2023-07-29T00:23:25;49.58;42.42;55.41;;
67324;Laerm;57667;51.438;5.968;2023-07-29T00:23:35;50.18;44.31;53.53;;
67324;Laerm;57667;51.438;5.968;2023-07-29T00:23:46;49.48;42.41;57.57;;
67324;Laerm;57667;51.438;5.968;2023-07-29T00:23:56;50.22;45.52;53.68;;
67324;Laerm;57667;51.438;5.968;2023-07-29T00:24:07;50.65;43.56;56.10;;
67324;Laerm;57667;51.438;5.968;2023-07-29T00:24:17;50.91;44.73;55.50;;
67324;Laerm;57667;51.438;5.968;2023-07-29T00:24:28;49.29;42.50;55.66;;
67324;Laerm;57667;51.438;5.968;2023-07-29T00:24:39;44.79;41.88;53.19;;
67324;Laerm;57667;51.438;5.968;2023-07-29T00:24:52;49.69;42.87;54.59;;
67324;Laerm;57667;51.438;5.968;2023-07-29T00:25:05;51.16;43.55;58.53;;
67324;Laerm;57667;51.438;5.968;2023-07-29T00:25:16;50.93;45.99;55.66;;
67324;Laerm;57667;51.438;5.968;2023-07-29T00:25:26;50.84;44.15;55.97;;
67324;Laerm;57667;51.438;5.968;2023-07-29T00:25:36;49.39;42.41;54.49;;
67324;Laerm;57667;51.438;5.968;2023-07-29T00:25:47;49.35;42.43;54.58;;
67324;Laerm;57667;51.438;5.968;2023-07-29T00:25:57;48.97;40.74;54.20;;
67324;Laerm;57667;51.438;5.968;2023-07-29T00:26:07;50.41;42.05;54.66;;
67324;Laerm;57667;51.438;5.968;2023-07-29T00:26:18;51.15;44.11;58.12;;
67324;Laerm;57667;51.438;5.968;2023-07-29T00:26:28;67.18;48.26;75.56;;
67324;Laerm;57667;51.438;5.968;2023-07-29T00:26:39;73.72;68.38;81.15;;
67324;Laerm;57667;51.438;5.968;2023-07-29T00:26:49;70.71;67.15;76.02;;
67324;Laerm;57667;51.438;5.968;2023-07-29T00:26:59;63.08;47.16;75.15;;
67324;Laerm;57667;51.438;5.968;2023-07-29T00:27:10;49.81;43.86;54.93;;
67324;Laerm;57667;51.438;5.968;2023-07-29T00:27:20;49.53;43.52;56.22;;
67324;Laerm;57667;51.438;5.968;2023-07-29T00:27:31;48.61;42.85;54.75;;
67324;Laerm;57667;51.438;5.968;2023-07-29T00:27:42;49.42;42.02;53.96;;
67324;Laerm;57667;51.438;5.968;2023-07-29T00:27:55;49.80;42.65;54.42;;
67324;Laerm;57667;51.438;5.968;2023-07-29T00:28:06;48.45;43.24;54.38;;
67324;Laerm;57667;51.438;5.968;2023-07-29T00:28:16;49.00;43.71;54.32;;
67324;Laerm;57667;51.438;5.968;2023-07-29T00:28:27;48.97;43.27;54.95;;
67324;Laerm;57667;51.438;5.968;2023-07-29T00:28:37;48.93;42.02;54.21;;
67324;Laerm;57667;51.438;5.968;2023-07-29T00:28:47;48.58;43.83;54.74;;
67324;Laerm;57667;51.438;5.968;2023-07-29T00:28:58;48.41;41.92;53.63;;
67324;Laerm;57667;51.438;5.968;2023-07-29T00:29:08;49.52;42.12;55.35;;
67324;Laerm;57667;51.438;5.968;2023-07-29T00:29:18;45.85;41.62;52.03;;
67324;Laerm;57667;51.438;5.968;2023-07-29T00:29:29;48.91;41.58;56.62;;
67324;Laerm;57667;51.438;5.968;2023-07-29T00:29:39;46.34;41.86;53.95;;
67324;Laerm;57667;51.438;5.968;2023-07-29T00:29:49;48.13;42.10;56.41;;
67324;Laerm;57667;51.438;5.968;2023-07-29T00:30:00;48.03;43.51;54.40;;
67324;Laerm;57667;51.438;5.968;2023-07-29T00:30:10;49.17;43.78;55.25;;
67324;Laerm;57667;51.438;5.968;2023-07-29T00:30:20;49.29;43.38;53.95;;
67324;Laerm;57667;51.438;5.968;2023-07-29T00:30:31;50.04;42.11;54.64;;
67324;Laerm;57667;51.438;5.968;2023-07-29T00:30:41;48.15;42.04;55.44;;
67324;Laerm;57667;51.438;5.968;2023-07-29T00:30:51;50.25;42.64;55.73;;
67324;Laerm;57667;51.438;5.968;2023-07-29T00:31:02;54.02;44.33;64.90;;
67324;Laerm;57667;51.438;5.968;2023-07-29T00:31:12;67.97;64.42;73.10;;
67324;Laerm;57667;51.438;5.968;2023-07-29T00:31:23;67.68;64.95;72.04;;
67324;Laerm;57667;51.438;5.968;2023-07-29T00:31:33;62.26;43.49;71.97;;
67324;Laerm;57667;51.438;5.968;2023-07-29T00:31:43;46.63;43.03;50.82;;
67324;Laerm;57667;51.438;5.968;2023-07-29T00:31:54;48.14;43.66;56.27;;
67324;Laerm;57667;51.438;5.968;2023-07-29T00:32:04;49.79;43.41;55.74;;
67324;Laerm;57667;51.438;5.968;2023-07-29T00:32:15;50.67;43.59;57.37;;
67324;Laerm;57667;51.438;5.968;2023-07-29T00:32:27;51.35;42.66;56.56;;
67324;Laerm;57667;51.438;5.968;2023-07-29T00:32:37;48.77;42.09;55.04;;
67324;Laerm;57667;51.438;5.968;2023-07-29T00:32:47;49.17;43.47;54.44;;
67324;Laerm;57667;51.438;5.968;2023-07-29T00:32:58;47.83;42.59;54.34;;
67324;Laerm;57667;51.438;5.968;2023-07-29T00:33:08;47.83;42.24;59.92;;
67324;Laerm;57667;51.438;5.968;2023-07-29T00:33:18;46.67;42.20;52.29;;
67324;Laerm;57667;51.438;5.968;2023-07-29T00:33:30;48.22;42.13;52.80;;
67324;Laerm;57667;51.438;5.968;2023-07-29T00:33:40;49.49;43.96;55.20;;
67324;Laerm;57667;51.438;5.968;2023-07-29T00:33:50;46.93;41.74;54.86;;
67324;Laerm;57667;51.438;5.968;2023-07-29T00:34:02;48.24;41.47;53.71;;
67324;Laerm;57667;51.438;5.968;2023-07-29T00:34:13;49.48;42.19;56.54;;
67324;Laerm;57667;51.438;5.968;2023-07-29T00:34:27;50.07;43.16;55.06;;
67324;Laerm;57667;51.438;5.968;2023-07-29T00:34:37;49.80;43.01;54.61;;
67324;Laerm;57667;51.438;5.968;2023-07-29T00:34:47;49.66;43.77;54.21;;
67324;Laerm;57667;51.438;5.968;2023-07-29T00:34:58;49.62;44.43;55.80;;
67324;Laerm;57667;51.438;5.968;2023-07-29T00:35:10;50.14;43.95;56.42;;
67324;Laerm;57667;51.438;5.968;2023-07-29T00:35:21;49.88;42.93;55.86;;
67324;Laerm;57667;51.438;5.968;2023-07-29T00:35:31;50.34;44.35;55.22;;
67324;Laerm;57667;51.438;5.968;2023-07-29T00:35:41;47.32;42.04;54.88;;
67324;Laerm;57667;51.438;5.968;2023-07-29T00:35:52;48.77;42.02;55.61;;
67324;Laerm;57667;51.438;5.968;2023-07-29T00:36:02;49.69;42.83;55.87;;
67324;Laerm;57667;51.438;5.968;2023-07-29T00:36:13;49.19;42.06;54.21;;
67324;Laerm;57667;51.438;5.968;2023-07-29T00:36:23;49.78;43.60;55.24;;
67324;Laerm;57667;51.438;5.968;2023-07-29T00:36:34;49.60;43.36;55.01;;
67324;Laerm;57667;51.438;5.968;2023-07-29T00:36:44;49.56;43.67;54.17;;
67324;Laerm;57667;51.438;5.968;2023-07-29T00:36:54;49.29;43.00;54.30;;
67324;Laerm;57667;51.438;5.968;2023-07-29T00:37:04;50.06;43.18;56.83;;
67324;Laerm;57667;51.438;5.968;2023-07-29T00:37:16;49.32;42.29;53.35;;
67324;Laerm;57667;51.438;5.968;2023-07-29T00:37:27;49.56;43.50;53.95;;
67324;Laerm;57667;51.438;5.968;2023-07-29T00:37:37;48.96;43.60;55.16;;
67324;Laerm;57667;51.438;5.968;2023-07-29T00:37:48;49.02;42.64;53.65;;
67324;Laerm;57667;51.438;5.968;2023-07-29T00:37:58;49.67;42.53;54.81;;
67324;Laerm;57667;51.438;5.968;2023-07-29T00:38:08;49.90;43.70;55.21;;
67324;Laerm;57667;51.438;5.968;2023-07-29T00:38:18;50.26;43.58;55.84;;
67324;Laerm;57667;51.438;5.968;2023-07-29T00:38:29;48.61;43.40;54.29;;
67324;Laerm;57667;51.438;5.968;2023-07-29T00:38:39;48.05;42.82;54.46;;
67324;Laerm;57667;51.438;5.968;2023-07-29T00:38:49;49.01;43.05;54.33;;
67324;Laerm;57667;51.438;5.968;2023-07-29T00:39:00;49.66;44.07;56.06;;
67324;Laerm;57667;51.438;5.968;2023-07-29T00:39:11;49.34;44.42;54.36;;
67324;Laerm;57667;51.438;5.968;2023-07-29T00:39:21;49.73;43.50;54.33;;
67324;Laerm;57667;51.438;5.968;2023-07-29T00:39:32;49.82;42.05;54.46;;
67324;Laerm;57667;51.438;5.968;2023-07-29T00:39:43;50.01;43.00;56.03;;
67324;Laerm;57667;51.438;5.968;2023-07-29T00:39:53;50.17;43.70;55.80;;
67324;Laerm;57667;51.438;5.968;2023-07-29T00:40:12;49.29;42.70;54.43;;
67324;Laerm;57667;51.438;5.968;2023-07-29T00:40:24;64.42;44.85;69.50;;
67324;Laerm;57667;51.438;5.968;2023-07-29T00:40:37;67.35;49.44;70.33;;
67324;Laerm;57667;51.438;5.968;2023-07-29T00:40:48;48.44;43.96;54.24;;
67324;Laerm;57667;51.438;5.968;2023-07-29T00:40:58;49.15;43.36;53.64;;
67324;Laerm;57667;51.438;5.968;2023-07-29T00:41:10;49.51;43.34;54.31;;
67324;Laerm;57667;51.438;5.968;2023-07-29T00:41:23;48.48;43.28;53.82;;
67324;Laerm;57667;51.438;5.968;2023-07-29T00:41:33;47.16;43.20;53.44;;
67324;Laerm;57667;51.438;5.968;2023-07-29T00:41:44;49.86;43.88;53.45;;
67324;Laerm;57667;51.438;5.968;2023-07-29T00:41:54;49.68;44.10;55.22;;
67324;Laerm;57667;51.438;5.968;2023-07-29T00:42:04;48.47;43.85;54.59;;
67324;Laerm;57667;51.438;5.968;2023-07-29T00:42:15;49.01;42.57;56.35;;
67324;Laerm;57667;51.438;5.968;2023-07-29T00:42:25;46.35;41.95;53.77;;
67324;Laerm;57667;51.438;5.968;2023-07-29T00:42:35;49.37;42.16;55.24;;
67324;Laerm;57667;51.438;5.968;2023-07-29T00:42:46;48.83;42.87;53.78;;
67324;Laerm;57667;51.438;5.968;2023-07-29T00:42:56;49.12;42.49;53.35;;
67324;Laerm;57667;51.438;5.968;2023-07-29T00:43:06;49.67;42.86;52.89;;
67324;Laerm;57667;51.438;5.968;2023-07-29T00:43:16;49.12;43.78;53.45;;
67324;Laerm;57667;51.438;5.968;2023-07-29T00:43:27;49.32;44.75;53.59;;
67324;Laerm;57667;51.438;5.968;2023-07-29T00:43:37;49.39;44.05;55.69;;
67324;Laerm;57667;51.438;5.968;2023-07-29T00:43:47;50.06;42.15;54.28;;
67324;Laerm;57667;51.438;5.968;2023-07-29T00:43:58;48.58;42.22;54.33;;
67324;Laerm;57667;51.438;5.968;2023-07-29T00:44:08;50.28;43.08;56.08;;
67324;Laerm;57667;51.438;5.968;2023-07-29T00:44:18;49.85;45.49;54.00;;
67324;Laerm;57667;51.438;5.968;2023-07-29T00:44:28;51.21;44.81;55.96;;
67324;Laerm;57667;51.438;5.968;2023-07-29T00:44:39;48.63;43.94;53.69;;
67324;Laerm;57667;51.438;5.968;2023-07-29T00:44:49;50.22;43.61;55.63;;
67324;Laerm;57667;51.438;5.968;2023-07-29T00:44:59;49.12;45.22;53.96;;
67324;Laerm;57667;51.438;5.968;2023-07-29T00:45:10;49.40;43.98;53.07;;
67324;Laerm;57667;51.438;5.968;2023-07-29T00:45:20;49.31;42.72;53.20;;
67324;Laerm;57667;51.438;5.968;2023-07-29T00:45:31;49.18;44.38;53.09;;
67324;Laerm;57667;51.438;5.968;2023-07-29T00:45:42;47.12;43.45;52.71;;
67324;Laerm;57667;51.438;5.968;2023-07-29T00:45:53;49.76;44.71;57.45;;
67324;Laerm;57667;51.438;5.968;2023-07-29T00:46:03;47.69;41.67;53.22;;
67324;Laerm;57667;51.438;5.968;2023-07-29T00:46:14;46.66;42.41;52.38;;
67324;Laerm;57667;51.438;5.968;2023-07-29T00:46:25;45.94;42.76;50.40;;
67324;Laerm;57667;51.438;5.968;2023-07-29T00:46:37;46.85;42.53;53.25;;
67324;Laerm;57667;51.438;5.968;2023-07-29T00:46:49;49.28;43.62;53.62;;
67324;Laerm;57667;51.438;5.968;2023-07-29T00:47:00;46.84;42.11;54.16;;
67324;Laerm;57667;51.438;5.968;2023-07-29T00:47:12;49.51;43.29;54.82;;
67324;Laerm;57667;51.438;5.968;2023-07-29T00:47:25;49.73;43.96;55.50;;
67324;Laerm;57667;51.438;5.968;2023-07-29T00:47:35;48.47;44.34;53.46;;
67324;Laerm;57667;51.438;5.968;2023-07-29T00:47:46;48.02;41.74;51.93;;
67324;Laerm;57667;51.438;5.968;2023-07-29T00:47:57;49.14;43.06;55.35;;
67324;Laerm;57667;51.438;5.968;2023-07-29T00:48:07;48.83;44.32;52.92;;
67324;Laerm;57667;51.438;5.968;2023-07-29T00:48:17;48.72;43.13;52.44;;
67324;Laerm;57667;51.438;5.968;2023-07-29T00:48:28;49.65;42.49;53.70;;
67324;Laerm;57667;51.438;5.968;2023-07-29T00:48:39;48.44;44.65;53.93;;
67324;Laerm;57667;51.438;5.968;2023-07-29T00:48:49;47.69;42.35;52.70;;
67324;Laerm;57667;51.438;5.968;2023-07-29T00:48:59;48.23;42.34;53.19;;
67324;Laerm;57667;51.438;5.968;2023-07-29T00:49:10;47.93;43.08;55.34;;
67324;Laerm;57667;51.438;5.968;2023-07-29T00:49:21;48.65;43.15;52.96;;
67324;Laerm;57667;51.438;5.968;2023-07-29T00:49:31;47.18;42.11;52.84;;
67324;Laerm;57667;51.438;5.968;2023-07-29T00:49:43;48.28;42.56;54.10;;
67324;Laerm;57667;51.438;5.968;2023-07-29T00:49:53;48.79;42.25;53.45;;
67324;Laerm;57667;51.438;5.968;2023-07-29T00:50:04;47.85;44.07;52.17;;
67324;Laerm;57667;51.438;5.968;2023-07-29T00:50:15;46.65;43.47;50.71;;
67324;Laerm;57667;51.438;5.968;2023-07-29T00:50:25;47.14;43.73;51.82;;
67324;Laerm;57667;51.438;5.968;2023-07-29T00:50:37;48.52;42.65;52.54;;
67324;Laerm;57667;51.438;5.968;2023-07-29T00:50:48;49.30;43.09;56.39;;
67324;Laerm;57667;51.438;5.968;2023-07-29T00:50:59;48.24;42.89;54.44;;
67324;Laerm;57667;51.438;5.968;2023-07-29T00:51:09;48.97;42.05;54.44;;
67324;Laerm;57667;51.438;5.968;2023-07-29T00:51:20;50.83;42.74;54.97;;
67324;Laerm;57667;51.438;5.968;2023-07-29T00:51:31;49.84;42.77;55.46;;
67324;Laerm;57667;51.438;5.968;2023-07-29T00:51:41;47.76;42.29;53.62;;
67324;Laerm;57667;51.438;5.968;2023-07-29T00:51:51;49.28;43.46;54.72;;
67324;Laerm;57667;51.438;5.968;2023-07-29T00:52:02;50.26;43.72;54.81;;
67324;Laerm;57667;51.438;5.968;2023-07-29T00:52:12;49.46;43.88;54.09;;
67324;Laerm;57667;51.438;5.968;2023-07-29T00:52:23;48.36;43.44;53.23;;
67324;Laerm;57667;51.438;5.968;2023-07-29T00:52:33;49.22;43.89;55.28;;
67324;Laerm;57667;51.438;5.968;2023-07-29T00:52:48;49.46;44.01;53.69;;
67324;Laerm;57667;51.438;5.968;2023-07-29T00:52:58;49.92;42.56;54.56;;
67324;Laerm;57667;51.438;5.968;2023-07-29T00:53:08;50.02;44.82;54.04;;
67324;Laerm;57667;51.438;5.968;2023-07-29T00:53:19;49.32;44.21;54.26;;
67324;Laerm;57667;51.438;5.968;2023-07-29T00:53:29;49.38;45.78;54.34;;
67324;Laerm;57667;51.438;5.968;2023-07-29T00:53:39;49.34;42.99;54.32;;
67324;Laerm;57667;51.438;5.968;2023-07-29T00:53:50;48.83;42.29;53.46;;
67324;Laerm;57667;51.438;5.968;2023-07-29T00:54:00;49.66;44.79;54.96;;
67324;Laerm;57667;51.438;5.968;2023-07-29T00:54:10;49.54;45.07;53.09;;
67324;Laerm;57667;51.438;5.968;2023-07-29T00:54:21;49.26;44.35;52.77;;
67324;Laerm;57667;51.438;5.968;2023-07-29T00:54:32;49.10;42.18;54.05;;
67324;Laerm;57667;51.438;5.968;2023-07-29T00:54:42;50.94;43.75;56.12;;
67324;Laerm;57667;51.438;5.968;2023-07-29T00:54:52;49.11;42.75;53.63;;
67324;Laerm;57667;51.438;5.968;2023-07-29T00:55:03;50.16;43.55;53.77;;
67324;Laerm;57667;51.438;5.968;2023-07-29T00:55:14;50.53;43.04;54.49;;
67324;Laerm;57667;51.438;5.968;2023-07-29T00:55:25;49.71;42.22;55.38;;
67324;Laerm;57667;51.438;5.968;2023-07-29T00:55:35;46.33;42.85;52.50;;
67324;Laerm;57667;51.438;5.968;2023-07-29T00:55:45;46.29;42.92;54.25;;
67324;Laerm;57667;51.438;5.968;2023-07-29T00:55:56;46.92;43.88;50.67;;
67324;Laerm;57667;51.438;5.968;2023-07-29T00:56:06;49.70;44.44;53.61;;
67324;Laerm;57667;51.438;5.968;2023-07-29T00:56:17;46.91;43.71;51.07;;
67324;Laerm;57667;51.438;5.968;2023-07-29T00:56:28;47.39;42.80;53.64;;
67324;Laerm;57667;51.438;5.968;2023-07-29T00:56:38;48.80;45.28;54.30;;
67324;Laerm;57667;51.438;5.968;2023-07-29T00:56:48;48.05;43.15;54.37;;
67324;Laerm;57667;51.438;5.968;2023-07-29T00:56:59;48.13;45.32;52.91;;
67324;Laerm;57667;51.438;5.968;2023-07-29T00:57:09;48.34;44.53;53.61;;
67324;Laerm;57667;51.438;5.968;2023-07-29T00:57:21;47.13;43.12;51.37;;
67324;Laerm;57667;51.438;5.968;2023-07-29T00:57:32;46.63;42.89;52.02;;
67324;Laerm;57667;51.438;5.968;2023-07-29T00:57:43;47.39;42.70;54.04;;
67324;Laerm;57667;51.438;5.968;2023-07-29T00:57:58;48.32;44.42;53.94;;
67324;Laerm;57667;51.438;5.968;2023-07-29T00:58:09;48.07;43.23;52.57;;
67324;Laerm;57667;51.438;5.968;2023-07-29T00:58:19;48.33;43.23;54.33;;
67324;Laerm;57667;51.438;5.968;2023-07-29T00:58:29;49.14;43.96;53.93;;
67324;Laerm;57667;51.438;5.968;2023-07-29T00:58:40;49.31;44.95;54.34;;
67324;Laerm;57667;51.438;5.968;2023-07-29T00:58:51;49.47;43.06;54.95;;
67324;Laerm;57667;51.438;5.968;2023-07-29T00:59:06;48.73;42.61;53.82;;
67324;Laerm;57667;51.438;5.968;2023-07-29T00:59:17;48.92;42.05;56.16;;
67324;Laerm;57667;51.438;5.968;2023-07-29T00:59:27;49.47;44.19;54.59;;
67324;Laerm;57667;51.438;5.968;2023-07-29T00:59:40;48.81;42.02;54.56;;